Time,TemperatureF,DewpointF,PressureIn,WindDirection,WindDirectionDegrees,WindSpeedMPH,WindSpeedGustMPH,Humidity,HourlyPrecipIn,Conditions,Clouds,dailyrainin,SolarRadiationWatts/m^2,SoftwareType,DateUTC
2013-02-23 00:21:00,38.0,29.0,-100.00,North,357,6.0,13.0,70,0.00,,,0.00,0.000000,,2013-02-23 08:21:00,
2013-02-23 00:31:00,38.0,29.0,-100.00,North,357,6.0,13.0,70,0.00,,,0.00,0.000000,,2013-02-23 08:31:00,
2013-02-23 00:41:00,38.0,29.0,-100.00,North,357,6.0,13.0,70,0.00,,,0.00,0.000000,,2013-02-23 08:41:00,
2013-02-23 00:52:00,38.0,29.0,-100.00,North,357,6.0,13.0,70,0.00,,,0.00,0.000000,,2013-02-23 08:52:00,
2013-02-23 01:11:00,38.0,30.0,-100.00,North,353,5.0,7.0,74,0.00,,,0.00,0.000000,,2013-02-23 09:11:00,
2013-02-23 01:21:00,38.0,30.0,-100.00,North,353,5.0,7.0,74,0.00,,,0.00,0.000000,,2013-02-23 09:21:00,
2013-02-23 01:31:00,38.0,30.0,-100.00,North,353,5.0,7.0,74,0.00,,,0.00,0.000000,,2013-02-23 09:31:00,
2013-02-23 01:41:00,38.0,30.0,-100.00,North,353,5.0,7.0,74,0.00,,,0.00,0.000000,,2013-02-23 09:41:00,
2013-02-23 01:51:00,38.0,30.0,-100.00,North,353,5.0,7.0,74,0.00,,,0.00,0.000000,,2013-02-23 09:51:00,
2013-02-23 02:21:00,38.0,30.0,-100.00,North,3,5.0,9.0,74,0.00,,,0.00,0.000000,,2013-02-23 10:21:00,
2013-02-23 02:31:00,38.0,30.0,-100.00,North,3,5.0,9.0,74,0.00,,,0.00,0.000000,,2013-02-23 10:31:00,
2013-02-23 02:41:00,38.0,30.0,-100.00,North,3,5.0,9.0,74,0.00,,,0.00,0.000000,,2013-02-23 10:41:00,
2013-02-23 02:51:00,38.0,30.0,-100.00,North,3,5.0,9.0,74,0.00,,,0.00,0.000000,,2013-02-23 10:51:00,
2013-02-23 03:21:00,37.0,30.0,-100.00,WNW,288,0.0,9.0,75,0.00,,,-99.99,0.000000,,2013-02-23 11:21:00,
2013-02-23 03:32:00,37.0,30.0,-100.00,WNW,288,0.0,9.0,75,0.00,,,-99.99,0.000000,,2013-02-23 11:32:00,
2013-02-23 03:41:00,37.0,30.0,-100.00,WNW,288,0.0,9.0,75,0.00,,,-99.99,0.000000,,2013-02-23 11:41:00,
2013-02-23 03:52:00,37.0,30.0,-100.00,WNW,288,0.0,9.0,75,0.00,,,-99.99,0.000000,,2013-02-23 11:52:00,
2013-02-23 04:21:00,35.0,28.0,-100.00,North,355,2.0,5.0,75,0.00,,,0.00,0.000000,,2013-02-23 12:21:00,
2013-02-23 04:32:00,35.0,28.0,-100.00,North,355,2.0,5.0,75,0.00,,,0.00,0.000000,,2013-02-23 12:32:00,
2013-02-23 04:42:00,35.0,28.0,-100.00,North,355,2.0,5.0,75,0.00,,,0.00,0.000000,,2013-02-23 12:42:00,
2013-02-23 04:52:00,35.0,28.0,-100.00,North,355,2.0,5.0,75,0.00,,,0.00,0.000000,,2013-02-23 12:52:00,
2013-02-23 05:22:00,34.0,28.0,-100.00,North,8,10.0,12.0,77,0.00,,,0.00,0.000000,,2013-02-23 13:22:00,
2013-02-23 05:32:00,34.0,28.0,-100.00,North,8,10.0,12.0,77,0.00,,,0.00,0.000000,,2013-02-23 13:32:00,
2013-02-23 05:42:00,34.0,28.0,-100.00,North,8,10.0,12.0,77,0.00,,,0.00,0.000000,,2013-02-23 13:42:00,
2013-02-23 05:51:00,34.0,28.0,-100.00,North,8,10.0,12.0,77,0.00,,,0.00,0.000000,,2013-02-23 13:51:00,
2013-02-23 06:21:00,35.0,29.0,-100.00,North,358,0.0,11.0,77,0.00,,,0.00,0.000000,,2013-02-23 14:21:00,
2013-02-23 06:32:00,35.0,29.0,-100.00,North,358,0.0,11.0,77,0.00,,,0.00,0.000000,,2013-02-23 14:32:00,
2013-02-23 06:41:00,35.0,29.0,-100.00,North,358,0.0,11.0,77,0.00,,,0.00,0.000000,,2013-02-23 14:41:00,
2013-02-23 06:52:00,35.0,29.0,-100.00,North,358,0.0,11.0,77,0.00,,,0.00,0.000000,,2013-02-23 14:52:00,
2013-02-23 07:21:00,36.0,29.0,-100.00,NNE,15,7.0,11.0,74,0.00,,,0.00,2.000000,,2013-02-23 15:21:00,
2013-02-23 07:31:00,36.0,29.0,-100.00,NNE,15,7.0,11.0,74,0.00,,,0.00,2.000000,,2013-02-23 15:31:00,
2013-02-23 07:41:00,36.0,29.0,-100.00,NNE,15,7.0,11.0,74,0.00,,,0.00,2.000000,,2013-02-23 15:41:00,
2013-02-23 07:51:00,36.0,29.0,-100.00,NNE,15,7.0,11.0,74,0.00,,,0.00,2.000000,,2013-02-23 15:51:00,
2013-02-23 08:21:00,40.0,30.0,-100.00,NNE,18,2.0,10.0,67,0.00,,,0.00,81.000000,,2013-02-23 16:21:00,
2013-02-23 08:31:00,40.0,30.0,-100.00,NNE,18,2.0,10.0,67,0.00,,,0.00,81.000000,,2013-02-23 16:31:00,
2013-02-23 08:42:00,40.0,30.0,-100.00,NNE,18,2.0,10.0,67,0.00,,,0.00,81.000000,,2013-02-23 16:42:00,
2013-02-23 08:51:00,40.0,30.0,-100.00,NNE,18,2.0,10.0,67,0.00,,,0.00,81.000000,,2013-02-23 16:51:00,
2013-02-23 09:21:00,46.0,30.0,-100.00,NNE,19,1.0,5.0,54,0.00,,,0.00,377.000000,,2013-02-23 17:21:00,
2013-02-23 09:31:00,46.0,30.0,-100.00,NNE,19,1.0,5.0,54,0.00,,,0.00,377.000000,,2013-02-23 17:31:00,
2013-02-23 09:41:00,46.0,30.0,-100.00,NNE,19,1.0,5.0,54,0.00,,,0.00,377.000000,,2013-02-23 17:41:00,
2013-02-23 09:52:00,46.0,30.0,-100.00,NNE,19,1.0,5.0,54,0.00,,,0.00,377.000000,,2013-02-23 17:52:00,
2013-02-23 10:41:00,54.0,33.0,-100.00,SSE,163,12.0,18.0,45,0.00,,,0.00,585.000000,,2013-02-23 18:41:00,
2013-02-23 10:51:00,54.0,33.0,-100.00,SSE,163,12.0,18.0,45,0.00,,,0.00,585.000000,,2013-02-23 18:51:00,
2013-02-23 11:21:00,55.0,31.0,-100.00,NW,310,25.0,34.0,40,0.00,,,0.00,776.000000,,2013-02-23 19:21:00,
2013-02-23 11:32:00,55.0,31.0,-100.00,NW,310,25.0,34.0,40,0.00,,,0.00,776.000000,,2013-02-23 19:32:00,
2013-02-23 11:41:00,55.0,31.0,-100.00,NW,310,25.0,34.0,40,0.00,,,0.00,776.000000,,2013-02-23 19:41:00,
2013-02-23 11:51:00,55.0,31.0,-100.00,NW,310,25.0,34.0,40,0.00,,,0.00,776.000000,,2013-02-23 19:51:00,
2013-02-23 12:21:00,54.0,30.0,-100.00,NNW,333,20.0,37.0,40,0.00,,,0.00,718.000000,,2013-02-23 20:21:00,
2013-02-23 12:31:00,54.0,30.0,-100.00,NNW,333,20.0,37.0,40,0.00,,,0.00,718.000000,,2013-02-23 20:31:00,
2013-02-23 12:41:00,54.0,30.0,-100.00,NNW,333,20.0,37.0,40,0.00,,,0.00,718.000000,,2013-02-23 20:41:00,
2013-02-23 12:52:00,54.0,30.0,-100.00,NNW,333,20.0,37.0,40,0.00,,,0.00,718.000000,,2013-02-23 20:52:00,
2013-02-23 13:22:00,53.0,29.0,-100.00,WNW,303,20.0,31.0,40,0.00,,,0.00,845.000000,,2013-02-23 21:22:00,
2013-02-23 13:31:00,53.0,29.0,-100.00,WNW,303,20.0,31.0,40,0.00,,,0.00,845.000000,,2013-02-23 21:31:00,
2013-02-23 13:41:00,53.0,29.0,-100.00,WNW,303,20.0,31.0,40,0.00,,,0.00,845.000000,,2013-02-23 21:41:00,
2013-02-23 13:51:00,53.0,29.0,-100.00,WNW,303,20.0,31.0,40,0.00,,,0.00,845.000000,,2013-02-23 21:51:00,
2013-02-23 14:21:00,54.0,30.0,-100.00,NW,315,24.0,41.0,40,0.00,,,0.00,805.000000,,2013-02-23 22:21:00,
2013-02-23 14:31:00,54.0,30.0,-100.00,NW,315,24.0,41.0,40,0.00,,,0.00,805.000000,,2013-02-23 22:31:00,
2013-02-23 14:41:00,54.0,30.0,-100.00,NW,315,24.0,41.0,40,0.00,,,0.00,805.000000,,2013-02-23 22:41:00,
2013-02-23 14:51:00,54.0,30.0,-100.00,NW,315,24.0,41.0,40,0.00,,,0.00,805.000000,,2013-02-23 22:51:00,
2013-02-23 15:21:00,50.0,29.0,-100.00,NW,320,20.0,38.0,44,0.00,,,0.00,446.000000,,2013-02-23 23:21:00,
2013-02-23 15:31:00,50.0,29.0,-100.00,NW,320,20.0,38.0,44,0.00,,,0.00,446.000000,,2013-02-23 23:31:00,
2013-02-23 15:41:00,50.0,29.0,-100.00,NW,320,20.0,38.0,44,0.00,,,0.00,446.000000,,2013-02-23 23:41:00,
2013-02-23 15:52:00,50.0,29.0,-100.00,NW,320,20.0,38.0,44,0.00,,,0.00,446.000000,,2013-02-23 23:52:00,
2013-02-23 16:22:00,49.0,27.0,-100.00,North,351,18.0,38.0,42,0.00,,,0.00,59.000000,,2013-02-24 00:22:00,
2013-02-23 16:32:00,49.0,27.0,-100.00,North,351,18.0,38.0,42,0.00,,,0.00,59.000000,,2013-02-24 00:32:00,
2013-02-23 16:42:00,49.0,27.0,-100.00,North,351,18.0,38.0,42,0.00,,,0.00,59.000000,,2013-02-24 00:42:00,
2013-02-23 16:52:00,49.0,27.0,-100.00,North,351,18.0,38.0,42,0.00,,,0.00,59.000000,,2013-02-24 00:52:00,
2013-02-23 17:22:00,47.0,25.0,-100.00,NNW,344,20.0,33.0,42,0.00,,,0.00,53.000000,,2013-02-24 01:22:00,
2013-02-23 17:31:00,47.0,25.0,-100.00,NNW,344,20.0,33.0,42,0.00,,,0.00,53.000000,,2013-02-24 01:31:00,
2013-02-23 17:41:00,47.0,25.0,-100.00,NNW,344,20.0,33.0,42,0.00,,,0.00,53.000000,,2013-02-24 01:41:00,
2013-02-23 17:51:00,47.0,25.0,-100.00,NNW,344,20.0,33.0,42,0.00,,,0.00,53.000000,,2013-02-24 01:51:00,
2013-02-23 18:21:00,46.0,25.0,-100.00,North,0,10.0,24.0,43,0.00,,,0.00,16.000000,,2013-02-24 02:21:00,
2013-02-23 18:32:00,46.0,25.0,-100.00,North,0,10.0,24.0,43,0.00,,,0.00,16.000000,,2013-02-24 02:32:00,
2013-02-23 18:41:00,46.0,25.0,-100.00,North,0,10.0,24.0,43,0.00,,,0.00,16.000000,,2013-02-24 02:41:00,
2013-02-23 18:52:00,46.0,25.0,-100.00,North,0,10.0,24.0,43,0.00,,,0.00,16.000000,,2013-02-24 02:52:00,
2013-02-23 19:21:00,46.0,29.0,-100.00,North,6,12.0,22.0,51,0.00,,,0.00,0.000000,,2013-02-24 03:21:00,
2013-02-23 19:31:00,46.0,29.0,-100.00,North,6,12.0,22.0,51,0.00,,,0.00,0.000000,,2013-02-24 03:31:00,
2013-02-23 19:42:00,46.0,29.0,-100.00,North,6,12.0,22.0,51,0.00,,,0.00,0.000000,,2013-02-24 03:42:00,
2013-02-23 19:52:00,46.0,29.0,-100.00,North,6,12.0,22.0,51,0.00,,,0.00,0.000000,,2013-02-24 03:52:00,
2013-02-23 20:21:00,47.0,33.0,-100.00,NNW,348,3.0,20.0,57,0.00,,,0.00,0.000000,,2013-02-24 04:21:00,
2013-02-23 20:31:00,47.0,33.0,-100.00,NNW,348,3.0,20.0,57,0.00,,,0.00,0.000000,,2013-02-24 04:31:00,
2013-02-23 20:41:00,47.0,33.0,-100.00,NNW,348,3.0,20.0,57,0.00,,,0.00,0.000000,,2013-02-24 04:41:00,
2013-02-23 20:51:00,47.0,33.0,-100.00,NNW,348,3.0,20.0,57,0.00,,,0.00,0.000000,,2013-02-24 04:51:00,
2013-02-23 21:21:00,46.0,35.0,-100.00,SSW,194,6.0,9.0,64,0.00,,,0.00,0.000000,,2013-02-24 05:21:00,
2013-02-23 21:32:00,46.0,35.0,-100.00,SSW,194,6.0,9.0,64,0.00,,,0.00,0.000000,,2013-02-24 05:32:00,
2013-02-23 21:42:00,46.0,35.0,-100.00,SSW,194,6.0,9.0,64,0.00,,,0.00,0.000000,,2013-02-24 05:42:00,
2013-02-23 21:52:00,46.0,35.0,-100.00,SSW,194,6.0,9.0,64,0.00,,,0.00,0.000000,,2013-02-24 05:52:00,
2013-02-23 22:21:00,43.0,33.0,-100.00,SSE,168,15.0,22.0,68,0.00,,,0.00,0.000000,,2013-02-24 06:21:00,
2013-02-23 22:31:00,43.0,33.0,-100.00,SSE,168,15.0,22.0,68,0.00,,,0.00,0.000000,,2013-02-24 06:31:00,
2013-02-23 22:41:00,43.0,33.0,-100.00,SSE,168,15.0,22.0,68,0.00,,,0.00,0.000000,,2013-02-24 06:41:00,
2013-02-23 22:52:00,43.0,33.0,-100.00,SSE,168,15.0,22.0,68,0.00,,,0.00,0.000000,,2013-02-24 06:52:00,
2013-02-23 23:21:00,43.0,34.0,-100.00,South,171,14.0,22.0,71,0.00,,,0.00,0.000000,,2013-02-24 07:21:00,
2013-02-23 23:31:00,43.0,34.0,-100.00,South,171,14.0,22.0,71,0.00,,,0.00,0.000000,,2013-02-24 07:31:00,
2013-02-23 23:41:00,43.0,34.0,-100.00,South,171,14.0,22.0,71,0.00,,,0.00,0.000000,,2013-02-24 07:41:00,
2013-02-23 23:51:00,43.0,34.0,-100.00,South,171,14.0,22.0,71,0.00,,,0.00,0.000000,,2013-02-24 07:51:00,